sensor_id;sensor_type;location;lat;lon;timestamp;temperature;humidity
42227;DHT22;27892;52.378;13.122;2023-02-01T00:00:11;8.20;62.10
42227;DHT22;27892;52.378;13.122;2023-02-01T00:02:37;8.20;62.40
42227;DHT22;27892;52.378;13.122;2023-02-01T00:05:07;8.10;62.30
42227;DHT22;27892;52.378;13.122;2023-02-01T00:07:34;8.20;62.30
42227;DHT22;27892;52.378;13.122;2023-02-01T00:10:00;8.20;62.20
42227;DHT22;27892;52.378;13.122;2023-02-01T00:12:26;8.10;62.30
42227;DHT22;27892;52.378;13.122;2023-02-01T00:14:52;8.10;62.50
42227;DHT22;27892;52.378;13.122;2023-02-01T00:17:17;8.10;62.70
42227;DHT22;27892;52.378;13.122;2023-02-01T00:19:43;8.30;62.70
42227;DHT22;27892;52.378;13.122;2023-02-01T00:22:09;8.30;62.40
42227;DHT22;27892;52.378;13.122;2023-02-01T00:24:34;8.40;62.10
42227;DHT22;27892;52.378;13.122;2023-02-01T00:27:00;8.40;62.00
42227;DHT22;27892;52.378;13.122;2023-02-01T00:29:26;8.40;62.30
42227;DHT22;27892;52.378;13.122;2023-02-01T00:31:52;8.50;62.20
42227;DHT22;27892;52.378;13.122;2023-02-01T00:34:21;8.50;62.60
42227;DHT22;27892;52.378;13.122;2023-02-01T00:36:46;8.60;62.10
42227;DHT22;27892;52.378;13.122;2023-02-01T00:39:12;8.70;62.00
42227;DHT22;27892;52.378;13.122;2023-02-01T00:41:38;8.70;62.10
42227;DHT22;27892;52.378;13.122;2023-02-01T00:44:03;8.80;62.60
42227;DHT22;27892;52.378;13.122;2023-02-01T00:46:30;8.70;63.20
42227;DHT22;27892;52.378;13.122;2023-02-01T00:48:56;8.50;64.10
42227;DHT22;27892;52.378;13.122;2023-02-01T00:51:24;8.30;64.50
42227;DHT22;27892;52.378;13.122;2023-02-01T00:53:50;8.20;65.00
42227;DHT22;27892;52.378;13.122;2023-02-01T00:56:16;8.00;65.50
42227;DHT22;27892;52.378;13.122;2023-02-01T00:58:42;8.00;65.50
42227;DHT22;27892;52.378;13.122;2023-02-01T01:01:19;8.00;65.40
42227;DHT22;27892;52.378;13.122;2023-02-01T01:03:51;8.00;65.60
42227;DHT22;27892;52.378;13.122;2023-02-01T01:06:25;7.90;65.70
42227;DHT22;27892;52.378;13.122;2023-02-01T01:08:55;7.90;65.60
42227;DHT22;27892;52.378;13.122;2023-02-01T01:11:24;7.90;65.30
42227;DHT22;27892;52.378;13.122;2023-02-01T01:13:53;7.90;65.20
42227;DHT22;27892;52.378;13.122;2023-02-01T01:16:21;8.10;65.00
42227;DHT22;27892;52.378;13.122;2023-02-01T01:18:47;8.00;64.30
42227;DHT22;27892;52.378;13.122;2023-02-01T01:21:14;8.10;64.40
42227;DHT22;27892;52.378;13.122;2023-02-01T01:23:41;8.10;64.00
42227;DHT22;27892;52.378;13.122;2023-02-01T01:26:14;8.10;63.50
42227;DHT22;27892;52.378;13.122;2023-02-01T01:28:41;8.20;63.50
42227;DHT22;27892;52.378;13.122;2023-02-01T01:31:10;8.20;63.00
42227;DHT22;27892;52.378;13.122;2023-02-01T01:33:36;8.10;62.80
42227;DHT22;27892;52.378;13.122;2023-02-01T01:36:07;8.20;62.70
42227;DHT22;27892;52.378;13.122;2023-02-01T01:38:36;8.20;62.40
42227;DHT22;27892;52.378;13.122;2023-02-01T01:41:02;8.20;62.70
42227;DHT22;27892;52.378;13.122;2023-02-01T01:46:31;8.30;62.40
42227;DHT22;27892;52.378;13.122;2023-02-01T01:49:14;8.30;62.50
42227;DHT22;27892;52.378;13.122;2023-02-01T01:51:46;8.20;62.30
42227;DHT22;27892;52.378;13.122;2023-02-01T01:54:18;8.20;62.30
42227;DHT22;27892;52.378;13.122;2023-02-01T01:56:51;8.20;62.40
42227;DHT22;27892;52.378;13.122;2023-02-01T01:59:19;8.20;62.50
42227;DHT22;27892;52.378;13.122;2023-02-01T02:01:46;8.10;62.30
42227;DHT22;27892;52.378;13.122;2023-02-01T02:04:12;8.20;62.60
42227;DHT22;27892;52.378;13.122;2023-02-01T02:09:38;8.10;62.60
42227;DHT22;27892;52.378;13.122;2023-02-01T02:12:04;8.10;62.80
42227;DHT22;27892;52.378;13.122;2023-02-01T02:14:30;8.20;63.40
42227;DHT22;27892;52.378;13.122;2023-02-01T02:36:01;8.30;63.20
42227;DHT22;27892;52.378;13.122;2023-02-01T02:44:23;8.50;62.70
42227;DHT22;27892;52.378;13.122;2023-02-01T02:47:16;8.60;62.70
42227;DHT22;27892;52.378;13.122;2023-02-01T02:50:02;8.60;62.50
42227;DHT22;27892;52.378;13.122;2023-02-01T02:53:16;8.60;62.60
42227;DHT22;27892;52.378;13.122;2023-02-01T02:56:03;8.50;62.60
42227;DHT22;27892;52.378;13.122;2023-02-01T02:58:50;8.60;62.40
42227;DHT22;27892;52.378;13.122;2023-02-01T03:01:35;8.60;62.50
42227;DHT22;27892;52.378;13.122;2023-02-01T03:04:20;8.60;62.10
42227;DHT22;27892;52.378;13.122;2023-02-01T03:06:46;8.50;62.00
42227;DHT22;27892;52.378;13.122;2023-02-01T03:09:26;8.50;62.10
42227;DHT22;27892;52.378;13.122;2023-02-01T03:12:13;8.50;62.10
42227;DHT22;27892;52.378;13.122;2023-02-01T03:15:18;8.50;62.00
42227;DHT22;27892;52.378;13.122;2023-02-01T03:17:48;8.40;62.40
42227;DHT22;27892;52.378;13.122;2023-02-01T03:20:17;8.40;62.40
42227;DHT22;27892;52.378;13.122;2023-02-01T03:22:46;8.40;61.90
42227;DHT22;27892;52.378;13.122;2023-02-01T03:25:18;8.40;62.20
42227;DHT22;27892;52.378;13.122;2023-02-01T03:27:53;8.50;62.10
42227;DHT22;27892;52.378;13.122;2023-02-01T03:30:34;8.50;61.80
42227;DHT22;27892;52.378;13.122;2023-02-01T03:33:04;8.60;61.80
42227;DHT22;27892;52.378;13.122;2023-02-01T03:38:38;8.70;61.40
42227;DHT22;27892;52.378;13.122;2023-02-01T03:41:28;8.60;61.10
42227;DHT22;27892;52.378;13.122;2023-02-01T03:43:58;8.70;61.20
42227;DHT22;27892;52.378;13.122;2023-02-01T03:46:39;8.70;61.20
42227;DHT22;27892;52.378;13.122;2023-02-01T03:49:09;8.80;61.60
42227;DHT22;27892;52.378;13.122;2023-02-01T03:51:37;8.70;61.80
42227;DHT22;27892;52.378;13.122;2023-02-01T03:54:05;8.80;61.20
42227;DHT22;27892;52.378;13.122;2023-02-01T03:56:32;8.80;61.10
42227;DHT22;27892;52.378;13.122;2023-02-01T03:59:02;8.90;60.80
42227;DHT22;27892;52.378;13.122;2023-02-01T04:01:31;8.80;60.70
42227;DHT22;27892;52.378;13.122;2023-02-01T04:03:57;8.90;60.80
42227;DHT22;27892;52.378;13.122;2023-02-01T04:06:24;9.00;60.80
42227;DHT22;27892;52.378;13.122;2023-02-01T04:08:50;8.90;60.20
42227;DHT22;27892;52.378;13.122;2023-02-01T04:11:17;9.00;60.00
42227;DHT22;27892;52.378;13.122;2023-02-01T04:13:43;9.00;60.20
42227;DHT22;27892;52.378;13.122;2023-02-01T04:16:09;9.10;60.00
42227;DHT22;27892;52.378;13.122;2023-02-01T04:18:35;9.20;59.90
42227;DHT22;27892;52.378;13.122;2023-02-01T04:21:01;9.20;60.10
42227;DHT22;27892;52.378;13.122;2023-02-01T04:23:28;9.20;60.60
42227;DHT22;27892;52.378;13.122;2023-02-01T04:25:59;9.20;60.00
42227;DHT22;27892;52.378;13.122;2023-02-01T04:28:26;9.20;60.00
42227;DHT22;27892;52.378;13.122;2023-02-01T04:30:51;9.20;59.90
42227;DHT22;27892;52.378;13.122;2023-02-01T04:33:17;9.30;59.90
42227;DHT22;27892;52.378;13.122;2023-02-01T04:35:42;9.30;59.80
42227;DHT22;27892;52.378;13.122;2023-02-01T04:38:08;9.30;59.80
42227;DHT22;27892;52.378;13.122;2023-02-01T04:40:34;9.30;59.70
42227;DHT22;27892;52.378;13.122;2023-02-01T04:43:00;9.30;59.40
42227;DHT22;27892;52.378;13.122;2023-02-01T04:45:26;9.30;59.50
42227;DHT22;27892;52.378;13.122;2023-02-01T04:47:52;9.30;59.60
42227;DHT22;27892;52.378;13.122;2023-02-01T04:50:17;9.30;59.60
42227;DHT22;27892;52.378;13.122;2023-02-01T04:52:43;9.30;59.70
42227;DHT22;27892;52.378;13.122;2023-02-01T04:55:10;9.30;59.70
42227;DHT22;27892;52.378;13.122;2023-02-01T04:57:36;9.30;59.50
42227;DHT22;27892;52.378;13.122;2023-02-01T05:00:05;9.30;59.60
42227;DHT22;27892;52.378;13.122;2023-02-01T05:02:31;9.30;59.40
42227;DHT22;27892;52.378;13.122;2023-02-01T05:04:57;9.20;59.10
42227;DHT22;27892;52.378;13.122;2023-02-01T05:07:23;9.20;59.50
42227;DHT22;27892;52.378;13.122;2023-02-01T05:09:49;9.30;59.60
42227;DHT22;27892;52.378;13.122;2023-02-01T05:12:14;9.30;59.30
42227;DHT22;27892;52.378;13.122;2023-02-01T05:14:59;9.20;59.50
42227;DHT22;27892;52.378;13.122;2023-02-01T05:17:24;9.20;59.70
42227;DHT22;27892;52.378;13.122;2023-02-01T05:19:50;9.20;59.60
42227;DHT22;27892;52.378;13.122;2023-02-01T05:22:16;9.30;59.70
42227;DHT22;27892;52.378;13.122;2023-02-01T05:24:41;9.30;59.60
42227;DHT22;27892;52.378;13.122;2023-02-01T05:27:07;9.30;59.70
42227;DHT22;27892;52.378;13.122;2023-02-01T05:29:33;9.20;59.50
42227;DHT22;27892;52.378;13.122;2023-02-01T05:31:58;9.20;59.50
42227;DHT22;27892;52.378;13.122;2023-02-01T05:34:24;9.20;59.50
42227;DHT22;27892;52.378;13.122;2023-02-01T05:36:49;9.30;59.50
42227;DHT22;27892;52.378;13.122;2023-02-01T05:39:15;9.20;59.40
42227;DHT22;27892;52.378;13.122;2023-02-01T05:41:41;9.20;59.70
42227;DHT22;27892;52.378;13.122;2023-02-01T05:44:07;9.20;59.90
42227;DHT22;27892;52.378;13.122;2023-02-01T05:46:34;9.20;59.60
42227;DHT22;27892;52.378;13.122;2023-02-01T05:49:00;9.20;59.50
42227;DHT22;27892;52.378;13.122;2023-02-01T05:51:26;9.10;59.70
42227;DHT22;27892;52.378;13.122;2023-02-01T05:53:51;9.10;59.60
42227;DHT22;27892;52.378;13.122;2023-02-01T05:56:17;9.20;59.80
42227;DHT22;27892;52.378;13.122;2023-02-01T05:58:43;9.10;59.80
42227;DHT22;27892;52.378;13.122;2023-02-01T06:01:08;9.20;59.90
42227;DHT22;27892;52.378;13.122;2023-02-01T06:03:34;9.10;59.70
42227;DHT22;27892;52.378;13.122;2023-02-01T06:05:59;9.10;59.90
42227;DHT22;27892;52.378;13.122;2023-02-01T06:08:26;9.20;59.70
42227;DHT22;27892;52.378;13.122;2023-02-01T06:11:04;9.20;59.60
42227;DHT22;27892;52.378;13.122;2023-02-01T06:13:30;9.10;59.20
42227;DHT22;27892;52.378;13.122;2023-02-01T06:15:56;9.10;59.60
42227;DHT22;27892;52.378;13.122;2023-02-01T06:18:23;9.20;59.60
42227;DHT22;27892;52.378;13.122;2023-02-01T06:20:56;9.10;59.60
42227;DHT22;27892;52.378;13.122;2023-02-01T06:23:22;9.20;59.80
42227;DHT22;27892;52.378;13.122;2023-02-01T06:25:57;9.20;59.70
42227;DHT22;27892;52.378;13.122;2023-02-01T06:28:23;9.10;59.70
42227;DHT22;27892;52.378;13.122;2023-02-01T06:30:49;9.10;59.80
42227;DHT22;27892;52.378;13.122;2023-02-01T06:33:15;9.10;59.70
42227;DHT22;27892;52.378;13.122;2023-02-01T06:35:42;9.10;59.60
42227;DHT22;27892;52.378;13.122;2023-02-01T06:38:11;9.20;59.70
42227;DHT22;27892;52.378;13.122;2023-02-01T06:40:38;9.10;59.80
42227;DHT22;27892;52.378;13.122;2023-02-01T06:43:03;9.20;60.00
42227;DHT22;27892;52.378;13.122;2023-02-01T06:45:29;9.20;59.70
42227;DHT22;27892;52.378;13.122;2023-02-01T06:47:55;9.10;59.40
42227;DHT22;27892;52.378;13.122;2023-02-01T06:50:21;9.10;59.70
42227;DHT22;27892;52.378;13.122;2023-02-01T06:52:46;9.10;59.50
42227;DHT22;27892;52.378;13.122;2023-02-01T06:55:12;9.20;59.50
42227;DHT22;27892;52.378;13.122;2023-02-01T06:57:39;9.20;59.40
42227;DHT22;27892;52.378;13.122;2023-02-01T07:00:05;9.20;59.50
42227;DHT22;27892;52.378;13.122;2023-02-01T07:02:31;9.20;59.60
42227;DHT22;27892;52.378;13.122;2023-02-01T07:04:57;9.10;59.30
42227;DHT22;27892;52.378;13.122;2023-02-01T07:07:22;9.10;59.50
42227;DHT22;27892;52.378;13.122;2023-02-01T07:09:49;9.20;59.70
42227;DHT22;27892;52.378;13.122;2023-02-01T07:12:15;9.20;59.70
42227;DHT22;27892;52.378;13.122;2023-02-01T07:14:41;9.10;60.10
42227;DHT22;27892;52.378;13.122;2023-02-01T07:17:06;9.20;60.40
42227;DHT22;27892;52.378;13.122;2023-02-01T07:19:32;9.00;60.00
42227;DHT22;27892;52.378;13.122;2023-02-01T07:21:58;9.10;60.70
42227;DHT22;27892;52.378;13.122;2023-02-01T07:24:23;9.20;61.00
42227;DHT22;27892;52.378;13.122;2023-02-01T07:26:49;9.30;61.10
42227;DHT22;27892;52.378;13.122;2023-02-01T07:29:17;9.30;60.90
42227;DHT22;27892;52.378;13.122;2023-02-01T07:31:43;9.30;60.80
42227;DHT22;27892;52.378;13.122;2023-02-01T07:34:09;9.10;61.70
42227;DHT22;27892;52.378;13.122;2023-02-01T07:36:35;9.10;62.50
42227;DHT22;27892;52.378;13.122;2023-02-01T07:39:03;9.00;63.00
42227;DHT22;27892;52.378;13.122;2023-02-01T07:41:29;8.90;63.60
42227;DHT22;27892;52.378;13.122;2023-02-01T07:43:55;8.80;64.50
42227;DHT22;27892;52.378;13.122;2023-02-01T07:46:22;8.80;65.30
42227;DHT22;27892;52.378;13.122;2023-02-01T07:48:48;8.60;65.80
42227;DHT22;27892;52.378;13.122;2023-02-01T07:51:15;8.70;66.60
42227;DHT22;27892;52.378;13.122;2023-02-01T07:53:42;8.70;67.10
42227;DHT22;27892;52.378;13.122;2023-02-01T07:56:16;8.60;67.00
42227;DHT22;27892;52.378;13.122;2023-02-01T07:58:42;8.60;68.00
42227;DHT22;27892;52.378;13.122;2023-02-01T08:01:14;8.50;68.50
42227;DHT22;27892;52.378;13.122;2023-02-01T08:03:56;8.40;69.10
42227;DHT22;27892;52.378;13.122;2023-02-01T08:06:29;8.30;69.70
42227;DHT22;27892;52.378;13.122;2023-02-01T08:09:00;8.30;70.20
42227;DHT22;27892;52.378;13.122;2023-02-01T08:11:29;8.20;70.00
42227;DHT22;27892;52.378;13.122;2023-02-01T08:13:55;8.20;70.80
42227;DHT22;27892;52.378;13.122;2023-02-01T08:16:22;8.20;71.10
42227;DHT22;27892;52.378;13.122;2023-02-01T08:18:49;8.30;71.70
42227;DHT22;27892;52.378;13.122;2023-02-01T08:21:17;8.20;71.60
42227;DHT22;27892;52.378;13.122;2023-02-01T08:23:43;8.10;71.60
42227;DHT22;27892;52.378;13.122;2023-02-01T08:26:13;8.00;72.20
42227;DHT22;27892;52.378;13.122;2023-02-01T08:28:42;7.90;73.10
42227;DHT22;27892;52.378;13.122;2023-02-01T08:31:09;7.90;73.50
42227;DHT22;27892;52.378;13.122;2023-02-01T08:33:36;7.90;73.70
42227;DHT22;27892;52.378;13.122;2023-02-01T08:36:06;8.00;74.00
42227;DHT22;27892;52.378;13.122;2023-02-01T08:38:32;8.00;74.20
42227;DHT22;27892;52.378;13.122;2023-02-01T08:40:57;8.10;74.50
42227;DHT22;27892;52.378;13.122;2023-02-01T08:43:28;8.20;74.40
42227;DHT22;27892;52.378;13.122;2023-02-01T08:45:54;8.10;74.20
42227;DHT22;27892;52.378;13.122;2023-02-01T08:48:21;8.10;74.40
42227;DHT22;27892;52.378;13.122;2023-02-01T08:50:46;8.00;74.20
42227;DHT22;27892;52.378;13.122;2023-02-01T08:53:13;8.10;74.30
42227;DHT22;27892;52.378;13.122;2023-02-01T08:55:47;8.00;74.30
42227;DHT22;27892;52.378;13.122;2023-02-01T08:58:13;8.00;74.70
42227;DHT22;27892;52.378;13.122;2023-02-01T09:00:40;8.00;74.90
42227;DHT22;27892;52.378;13.122;2023-02-01T09:03:08;8.00;74.90
42227;DHT22;27892;52.378;13.122;2023-02-01T09:05:35;8.10;75.30
42227;DHT22;27892;52.378;13.122;2023-02-01T09:08:01;8.20;74.80
42227;DHT22;27892;52.378;13.122;2023-02-01T09:10:26;8.30;74.30
42227;DHT22;27892;52.378;13.122;2023-02-01T09:12:52;8.20;74.30
42227;DHT22;27892;52.378;13.122;2023-02-01T09:15:18;8.20;75.20
42227;DHT22;27892;52.378;13.122;2023-02-01T09:17:43;8.30;74.70
42227;DHT22;27892;52.378;13.122;2023-02-01T09:20:09;8.30;74.60
42227;DHT22;27892;52.378;13.122;2023-02-01T09:22:35;8.30;74.30
42227;DHT22;27892;52.378;13.122;2023-02-01T09:25:01;8.30;74.50
42227;DHT22;27892;52.378;13.122;2023-02-01T09:27:27;8.40;74.30
42227;DHT22;27892;52.378;13.122;2023-02-01T09:29:52;8.30;73.90
42227;DHT22;27892;52.378;13.122;2023-02-01T09:32:20;8.30;73.90
42227;DHT22;27892;52.378;13.122;2023-02-01T09:34:45;8.40;74.30
42227;DHT22;27892;52.378;13.122;2023-02-01T09:37:11;8.40;73.70
42227;DHT22;27892;52.378;13.122;2023-02-01T09:39:37;8.50;73.80
42227;DHT22;27892;52.378;13.122;2023-02-01T09:45:17;8.50;73.60
42227;DHT22;27892;52.378;13.122;2023-02-01T09:47:54;8.50;73.50
42227;DHT22;27892;52.378;13.122;2023-02-01T09:50:38;8.50;73.00
42227;DHT22;27892;52.378;13.122;2023-02-01T09:55:57;8.60;72.80
42227;DHT22;27892;52.378;13.122;2023-02-01T10:00:59;8.70;72.40
42227;DHT22;27892;52.378;13.122;2023-02-01T10:03:28;8.60;72.40
42227;DHT22;27892;52.378;13.122;2023-02-01T10:27:55;9.20;71.40
42227;DHT22;27892;52.378;13.122;2023-02-01T10:31:06;9.30;71.00
42227;DHT22;27892;52.378;13.122;2023-02-01T10:33:42;9.40;71.50
42227;DHT22;27892;52.378;13.122;2023-02-01T10:36:28;9.40;70.10
42227;DHT22;27892;52.378;13.122;2023-02-01T10:38:55;9.50;69.60
42227;DHT22;27892;52.378;13.122;2023-02-01T10:41:42;9.50;69.30
42227;DHT22;27892;52.378;13.122;2023-02-01T10:44:16;9.70;69.60
42227;DHT22;27892;52.378;13.122;2023-02-01T10:46:42;9.80;68.80
42227;DHT22;27892;52.378;13.122;2023-02-01T10:49:24;9.80;67.50
42227;DHT22;27892;52.378;13.122;2023-02-01T10:54:55;10.00;66.50
42227;DHT22;27892;52.378;13.122;2023-02-01T11:00:52;10.20;65.10
42227;DHT22;27892;52.378;13.122;2023-02-01T11:03:40;10.30;66.70
42227;DHT22;27892;52.378;13.122;2023-02-01T11:08:59;11.70;64.10
42227;DHT22;27892;52.378;13.122;2023-02-01T11:11:26;12.30;62.20
42227;DHT22;27892;52.378;13.122;2023-02-01T11:13:58;12.30;59.50
42227;DHT22;27892;52.378;13.122;2023-02-01T11:16:35;12.60;60.80
42227;DHT22;27892;52.378;13.122;2023-02-01T11:19:05;12.80;58.90
42227;DHT22;27892;52.378;13.122;2023-02-01T11:21:32;12.50;58.10
42227;DHT22;27892;52.378;13.122;2023-02-01T11:24:02;12.10;59.00
42227;DHT22;27892;52.378;13.122;2023-02-01T11:26:29;11.80;59.20
42227;DHT22;27892;52.378;13.122;2023-02-01T11:29:04;11.60;59.60
42227;DHT22;27892;52.378;13.122;2023-02-01T11:31:34;11.50;60.40
42227;DHT22;27892;52.378;13.122;2023-02-01T11:34:13;11.50;60.30
42227;DHT22;27892;52.378;13.122;2023-02-01T11:36:40;11.90;61.60
42227;DHT22;27892;52.378;13.122;2023-02-01T11:41:43;12.00;58.60
42227;DHT22;27892;52.378;13.122;2023-02-01T11:44:30;11.90;58.90
42227;DHT22;27892;52.378;13.122;2023-02-01T11:47:26;11.80;58.80
42227;DHT22;27892;52.378;13.122;2023-02-01T11:49:54;11.60;60.20
42227;DHT22;27892;52.378;13.122;2023-02-01T11:58:20;12.00;60.50
42227;DHT22;27892;52.378;13.122;2023-02-01T12:06:08;12.70;57.50
42227;DHT22;27892;52.378;13.122;2023-02-01T12:09:10;12.70;57.10
42227;DHT22;27892;52.378;13.122;2023-02-01T12:11:58;12.60;56.20
42227;DHT22;27892;52.378;13.122;2023-02-01T12:22:55;12.40;56.20
42227;DHT22;27892;52.378;13.122;2023-02-01T12:25:41;12.40;55.40
42227;DHT22;27892;52.378;13.122;2023-02-01T12:28:49;12.20;55.40
42227;DHT22;27892;52.378;13.122;2023-02-01T12:43:28;11.80;55.80
42227;DHT22;27892;52.378;13.122;2023-02-01T12:46:01;11.80;56.10
42227;DHT22;27892;52.378;13.122;2023-02-01T12:48:58;11.70;56.30
42227;DHT22;27892;52.378;13.122;2023-02-01T12:51:29;11.60;56.30
42227;DHT22;27892;52.378;13.122;2023-02-01T12:54:30;11.30;55.50
42227;DHT22;27892;52.378;13.122;2023-02-01T12:57:01;11.10;56.50
42227;DHT22;27892;52.378;13.122;2023-02-01T12:59:38;11.10;57.30
42227;DHT22;27892;52.378;13.122;2023-02-01T13:07:44;11.00;57.40
42227;DHT22;27892;52.378;13.122;2023-02-01T13:10:32;10.90;57.70
42227;DHT22;27892;52.378;13.122;2023-02-01T13:16:06;10.90;58.10
42227;DHT22;27892;52.378;13.122;2023-02-01T13:18:39;11.00;58.50
42227;DHT22;27892;52.378;13.122;2023-02-01T13:21:25;10.90;58.00
42227;DHT22;27892;52.378;13.122;2023-02-01T13:23:52;10.80;58.50
42227;DHT22;27892;52.378;13.122;2023-02-01T13:26:18;10.90;58.80
42227;DHT22;27892;52.378;13.122;2023-02-01T13:29:02;11.00;58.30
42227;DHT22;27892;52.378;13.122;2023-02-01T13:32:05;11.00;58.20
42227;DHT22;27892;52.378;13.122;2023-02-01T13:45:22;11.20;58.50
42227;DHT22;27892;52.378;13.122;2023-02-01T13:47:52;11.10;58.10
42227;DHT22;27892;52.378;13.122;2023-02-01T13:50:26;11.20;58.00
42227;DHT22;27892;52.378;13.122;2023-02-01T13:55:37;11.10;57.50
42227;DHT22;27892;52.378;13.122;2023-02-01T13:58:20;11.00;58.00
42227;DHT22;27892;52.378;13.122;2023-02-01T14:00:48;10.80;59.70
42227;DHT22;27892;52.378;13.122;2023-02-01T14:03:43;10.70;59.40
42227;DHT22;27892;52.378;13.122;2023-02-01T14:09:13;10.60;59.90
42227;DHT22;27892;52.378;13.122;2023-02-01T14:11:45;10.60;60.00
42227;DHT22;27892;52.378;13.122;2023-02-01T14:19:22;10.50;59.50
42227;DHT22;27892;52.378;13.122;2023-02-01T14:21:53;10.50;58.80
42227;DHT22;27892;52.378;13.122;2023-02-01T14:24:34;10.50;58.50
42227;DHT22;27892;52.378;13.122;2023-02-01T14:27:17;10.50;58.70
42227;DHT22;27892;52.378;13.122;2023-02-01T14:29:51;10.50;58.90
42227;DHT22;27892;52.378;13.122;2023-02-01T14:32:30;10.50;57.80
42227;DHT22;27892;52.378;13.122;2023-02-01T14:35:00;10.40;58.50
42227;DHT22;27892;52.378;13.122;2023-02-01T14:39:55;10.60;58.20
42227;DHT22;27892;52.378;13.122;2023-02-01T14:42:44;10.60;57.50
42227;DHT22;27892;52.378;13.122;2023-02-01T14:58:55;10.40;57.80
42227;DHT22;27892;52.378;13.122;2023-02-01T15:01:25;10.40;58.80
42227;DHT22;27892;52.378;13.122;2023-02-01T15:04:04;10.30;59.10
42227;DHT22;27892;52.378;13.122;2023-02-01T15:06:42;10.00;59.70
42227;DHT22;27892;52.378;13.122;2023-02-01T15:09:28;9.60;63.40
42227;DHT22;27892;52.378;13.122;2023-02-01T15:14:21;9.00;65.30
42227;DHT22;27892;52.378;13.122;2023-02-01T15:16:46;9.00;66.20
42227;DHT22;27892;52.378;13.122;2023-02-01T15:19:20;9.00;66.70
42227;DHT22;27892;52.378;13.122;2023-02-01T15:21:50;8.90;67.40
42227;DHT22;27892;52.378;13.122;2023-02-01T15:24:25;8.90;68.00
42227;DHT22;27892;52.378;13.122;2023-02-01T15:26:53;8.90;68.60
42227;DHT22;27892;52.378;13.122;2023-02-01T15:29:21;8.70;69.00
42227;DHT22;27892;52.378;13.122;2023-02-01T15:31:51;8.60;69.60
42227;DHT22;27892;52.378;13.122;2023-02-01T15:34:19;8.50;70.10
42227;DHT22;27892;52.378;13.122;2023-02-01T15:36:45;8.50;70.60
42227;DHT22;27892;52.378;13.122;2023-02-01T15:39:20;8.50;71.30
42227;DHT22;27892;52.378;13.122;2023-02-01T15:41:51;8.50;71.60
42227;DHT22;27892;52.378;13.122;2023-02-01T15:44:41;8.60;71.80
42227;DHT22;27892;52.378;13.122;2023-02-01T15:47:15;8.60;72.10
42227;DHT22;27892;52.378;13.122;2023-02-01T15:49:43;8.60;72.60
42227;DHT22;27892;52.378;13.122;2023-02-01T15:52:37;8.50;72.10
42227;DHT22;27892;52.378;13.122;2023-02-01T15:55:07;8.50;73.10
42227;DHT22;27892;52.378;13.122;2023-02-01T15:57:36;8.50;73.70
42227;DHT22;27892;52.378;13.122;2023-02-01T16:02:54;8.50;74.60
42227;DHT22;27892;52.378;13.122;2023-02-01T16:05:41;8.50;74.70
42227;DHT22;27892;52.378;13.122;2023-02-01T16:10:42;8.40;75.70
42227;DHT22;27892;52.378;13.122;2023-02-01T16:13:08;8.30;73.60
42227;DHT22;27892;52.378;13.122;2023-02-01T16:15:34;7.90;72.20
42227;DHT22;27892;52.378;13.122;2023-02-01T16:17:59;7.60;72.80
42227;DHT22;27892;52.378;13.122;2023-02-01T16:20:25;7.40;73.20
42227;DHT22;27892;52.378;13.122;2023-02-01T16:22:51;7.30;74.00
42227;DHT22;27892;52.378;13.122;2023-02-01T16:25:16;7.10;74.40
42227;DHT22;27892;52.378;13.122;2023-02-01T16:27:42;7.00;74.50
42227;DHT22;27892;52.378;13.122;2023-02-01T16:30:08;7.00;74.90
42227;DHT22;27892;52.378;13.122;2023-02-01T16:32:36;7.00;75.50
42227;DHT22;27892;52.378;13.122;2023-02-01T16:35:17;7.00;75.60
42227;DHT22;27892;52.378;13.122;2023-02-01T16:37:46;6.90;75.50
42227;DHT22;27892;52.378;13.122;2023-02-01T16:40:16;6.90;75.80
42227;DHT22;27892;52.378;13.122;2023-02-01T16:42:42;6.90;76.20
42227;DHT22;27892;52.378;13.122;2023-02-01T16:45:08;6.80;76.20
42227;DHT22;27892;52.378;13.122;2023-02-01T16:47:37;6.80;76.40
42227;DHT22;27892;52.378;13.122;2023-02-01T16:50:03;6.80;76.90
42227;DHT22;27892;52.378;13.122;2023-02-01T16:52:29;6.80;77.20
42227;DHT22;27892;52.378;13.122;2023-02-01T16:54:55;6.80;77.10
42227;DHT22;27892;52.378;13.122;2023-02-01T16:57:20;6.80;77.70
42227;DHT22;27892;52.378;13.122;2023-02-01T16:59:51;6.80;77.50
42227;DHT22;27892;52.378;13.122;2023-02-01T17:02:18;6.80;77.70
42227;DHT22;27892;52.378;13.122;2023-02-01T17:04:45;7.00;78.10
42227;DHT22;27892;52.378;13.122;2023-02-01T17:07:16;7.00;77.80
42227;DHT22;27892;52.378;13.122;2023-02-01T17:09:42;7.00;78.60
42227;DHT22;27892;52.378;13.122;2023-02-01T17:14:49;7.20;77.50
42227;DHT22;27892;52.378;13.122;2023-02-01T17:17:16;7.20;77.60
42227;DHT22;27892;52.378;13.122;2023-02-01T17:19:43;7.20;77.50
42227;DHT22;27892;52.378;13.122;2023-02-01T17:22:09;7.30;77.70
42227;DHT22;27892;52.378;13.122;2023-02-01T17:24:34;7.30;77.40
42227;DHT22;27892;52.378;13.122;2023-02-01T17:27:00;7.30;77.70
42227;DHT22;27892;52.378;13.122;2023-02-01T17:29:26;7.30;77.60
42227;DHT22;27892;52.378;13.122;2023-02-01T17:31:53;7.40;77.40
42227;DHT22;27892;52.378;13.122;2023-02-01T17:34:20;7.40;77.00
42227;DHT22;27892;52.378;13.122;2023-02-01T17:36:47;7.50;76.90
42227;DHT22;27892;52.378;13.122;2023-02-01T17:39:14;7.50;76.70
42227;DHT22;27892;52.378;13.122;2023-02-01T17:42:01;7.50;77.60
42227;DHT22;27892;52.378;13.122;2023-02-01T17:44:27;7.50;76.60
42227;DHT22;27892;52.378;13.122;2023-02-01T17:46:53;7.50;76.90
42227;DHT22;27892;52.378;13.122;2023-02-01T17:49:20;7.60;76.90
42227;DHT22;27892;52.378;13.122;2023-02-01T17:51:45;7.60;76.90
42227;DHT22;27892;52.378;13.122;2023-02-01T17:54:12;7.60;76.90
42227;DHT22;27892;52.378;13.122;2023-02-01T17:56:38;7.60;77.10
42227;DHT22;27892;52.378;13.122;2023-02-01T17:59:04;7.70;77.10
42227;DHT22;27892;52.378;13.122;2023-02-01T18:01:29;7.70;77.20
42227;DHT22;27892;52.378;13.122;2023-02-01T18:03:55;7.70;77.10
42227;DHT22;27892;52.378;13.122;2023-02-01T18:06:23;7.70;77.10
42227;DHT22;27892;52.378;13.122;2023-02-01T18:08:51;7.80;77.10
42227;DHT22;27892;52.378;13.122;2023-02-01T18:11:18;7.70;76.50
42227;DHT22;27892;52.378;13.122;2023-02-01T18:13:45;7.70;76.80
42227;DHT22;27892;52.378;13.122;2023-02-01T18:16:27;7.70;76.90
42227;DHT22;27892;52.378;13.122;2023-02-01T18:18:53;7.70;76.90
42227;DHT22;27892;52.378;13.122;2023-02-01T18:21:21;7.70;76.70
42227;DHT22;27892;52.378;13.122;2023-02-01T18:23:48;7.80;76.70
42227;DHT22;27892;52.378;13.122;2023-02-01T18:26:15;7.80;76.40
42227;DHT22;27892;52.378;13.122;2023-02-01T18:28:42;7.70;76.50
42227;DHT22;27892;52.378;13.122;2023-02-01T18:31:29;7.70;76.50